Time;durP1;ratioP1;P1;durP2;ratioP2;P2;SDS_P1;SDS_P2;PMS_P1;PMS_P2;Temp;Humidity;BMP_temperature;BMP_pressure;BME280_temperature;BME280_humidity;BME280_pressure;Samples;Min_cycle;Max_cycle;Signal;HPM_P1;HPM_P2
2022/01/24 00:02:06;;;;;;;11.30;8.13;;;;;;;-4.84;79.03;101249.46;1726849;81;21129;-78
2022/01/24 00:04:33;;;;;;;17.20;11.57;;;;;;;-4.98;78.96;101259.29;1742393;81;21044;-75
2022/01/24 00:07:00;;;;;;;13.43;11.33;;;;;;;-5.10;79.11;101262.81;1735144;81;21535;-82
2022/01/24 00:09:27;;;;;;;14.77;10.87;;;;;;;-5.24;79.49;101275.62;1733979;81;21033;-71
2022/01/24 00:17:12;;;;;;;16.03;11.97;;;;;;;-5.60;81.13;101284.75;1699676;84;20949;-74
2022/01/24 00:27:51;;;;;;;13.40;10.40;;;;;;;-5.83;83.21;101303.39;1760983;81;21199;-70
2022/01/24 00:30:18;;;;;;;14.00;9.77;;;;;;;-5.89;83.95;101303.83;1761274;81;20946;-70
2022/01/24 00:32:45;;;;;;;15.30;10.50;;;;;;;-6.00;84.56;101307.67;1691805;83;21050;-68
2022/01/24 00:35:13;;;;;;;15.70;9.50;;;;;;;-6.04;84.54;101309.64;1705135;83;21057;-70
2022/01/24 00:37:40;;;;;;;21.07;13.63;;;;;;;-6.16;84.87;101303.94;1704329;83;21538;-68
2022/01/24 00:40:08;;;;;;;15.17;9.87;;;;;;;-6.28;85.17;101331.77;1729847;83;21794;-85
2022/01/24 00:42:48;;;;;;;17.50;9.13;;;;;;;-6.35;85.38;101316.58;1707305;82;20912;-78
2022/01/24 00:45:10;;;;;;;15.30;9.47;;;;;;;-6.50;85.99;101322.81;1743290;82;20970;-73
2022/01/24 00:48:27;;;;;;;12.47;7.83;;;;;;;-6.71;86.36;101335.51;1742608;82;21071;-73
2022/01/24 00:55:24;;;;;;;14.27;10.67;;;;;;;-7.13;88.76;101318.17;1726237;82;22304;-68
2022/01/24 00:57:50;;;;;;;15.67;8.53;;;;;;;-7.13;89.02;101323.41;1711699;82;21593;-75
2022/01/24 01:00:16;;;;;;;11.73;8.63;;;;;;;-7.16;89.69;101323.15;1728523;81;21026;-80
2022/01/24 01:02:43;;;;;;;17.83;11.37;;;;;;;-7.17;89.97;101311.47;1738527;81;21126;-80
2022/01/24 01:18:04;;;;;;;12.73;8.70;;;;;;;-7.05;90.11;101316.75;1706135;83;21027;-73
2022/01/24 01:18:49;;;;;;;16.90;10.33;;;;;;;-6.99;90.72;101313.38;1717248;82;21154;-74
2022/01/24 01:21:15;;;;;;;12.83;8.97;;;;;;;-7.01;90.75;101316.58;1750629;81;20973;-72
2022/01/24 01:23:48;;;;;;;19.90;14.33;;;;;;;-7.02;91.04;101323.58;1746019;81;20943;-75
2022/01/24 01:26:29;;;;;;;17.00;11.07;;;;;;;-6.99;91.20;101326.45;1754967;81;21452;-75
2022/01/24 01:29:19;;;;;;;14.73;9.73;;;;;;;-6.97;91.02;101330.66;1738733;81;21602;-73
2022/01/24 01:31:33;;;;;;;16.20;9.97;;;;;;;-6.92;91.09;101331.67;1733683;81;21070;-75
2022/01/24 01:34:01;;;;;;;14.80;9.27;;;;;;;-6.86;91.10;101333.91;1712910;82;20971;-75
2022/01/24 01:36:34;;;;;;;14.97;10.27;;;;;;;-6.90;91.06;101331.94;1688251;83;20915;-79
2022/01/24 01:39:16;;;;;;;19.77;11.10;;;;;;;-6.90;91.17;101335.02;1711041;83;20936;-80
2022/01/24 01:52:34;;;;;;;14.10;9.67;;;;;;;-7.04;91.94;101333.28;1695541;83;21023;-77
2022/01/24 01:55:15;;;;;;;10.70;7.63;;;;;;;-7.01;92.09;101329.19;1736821;81;21065;-77
2022/01/24 01:57:24;;;;;;;12.03;8.67;;;;;;;-7.01;92.26;101334.87;1701613;82;21200;-78
2022/01/24 01:59:50;;;;;;;12.93;8.13;;;;;;;-7.01;92.25;101328.34;1726629;82;20991;-73
2022/01/24 02:02:16;;;;;;;13.20;8.83;;;;;;;-7.05;92.32;101325.09;1727656;81;21050;-74
2022/01/24 02:04:43;;;;;;;9.70;8.43;;;;;;;-7.09;92.54;101324.42;1706610;84;21574;-75
2022/01/24 02:07:14;;;;;;;15.60;9.70;;;;;;;-7.09;92.66;101337.49;1708296;83;21010;-76
2022/01/24 02:09:44;;;;;;;14.17;9.43;;;;;;;-7.10;92.71;101333.69;1715160;82;21063;-74
2022/01/24 02:12:11;;;;;;;9.37;7.03;;;;;;;-7.12;92.88;101331.16;1728525;81;20914;-73
2022/01/24 02:14:51;;;;;;;12.00;7.43;;;;;;;-7.09;92.98;101337.49;1724616;83;21084;-78
2022/01/24 02:17:15;;;;;;;11.37;8.30;;;;;;;-7.12;93.07;101336.39;1694430;84;21064;-73
2022/01/24 02:25:07;;;;;;;9.37;6.90;;;;;;;-7.06;93.15;101334.70;1704953;83;20962;-73
2022/01/24 02:27:22;;;;;;;8.93;6.27;;;;;;;-7.03;93.17;101336.27;1701004;84;20981;-72
2022/01/24 02:32:39;;;;;;;10.23;6.83;;;;;;;-6.95;93.14;101345.77;1729502;82;21488;-72
2022/01/24 02:35:07;;;;;;;6.93;4.77;;;;;;;-6.97;93.06;101346.35;1674525;84;21128;-74
2022/01/24 02:37:33;;;;;;;10.00;7.07;;;;;;;-6.96;93.00;101348.50;1697050;84;21088;-78
2022/01/24 02:40:08;;;;;;;8.83;6.33;;;;;;;-7.02;92.83;101338.42;1692796;84;21478;-78
2022/01/24 02:51:25;;;;;;;10.23;8.17;;;;;;;-7.02;92.74;101343.66;1569666;90;21624;-80
2022/01/24 02:53:38;;;;;;;8.60;6.73;;;;;;;-7.01;92.73;101340.11;1610555;87;21047;-77
2022/01/24 02:56:05;;;;;;;9.07;7.17;;;;;;;-7.05;92.71;101346.81;1651726;83;21108;-79
2022/01/24 02:58:32;;;;;;;11.13;6.77;;;;;;;-7.06;92.76;101339.94;1692697;83;21045;-77
2022/01/24 03:00:58;;;;;;;9.43;6.30;;;;;;;-7.03;92.84;101344.12;1716448;83;21506;-79
2022/01/24 03:03:25;;;;;;;6.80;5.53;;;;;;;-6.97;92.85;101348.13;1711539;82;21633;-79
2022/01/24 03:05:51;;;;;;;9.00;7.17;;;;;;;-6.98;92.88;101347.28;1692139;83;22164;-78
2022/01/24 03:08:21;;;;;;;10.40;7.53;;;;;;;-6.97;92.94;101342.89;1710709;83;21073;-75
2022/01/24 03:10:47;;;;;;;7.00;6.20;;;;;;;-6.97;93.01;101344.20;1715144;83;20911;-78
2022/01/24 03:15:48;;;;;;;9.00;7.03;;;;;;;-6.89;93.17;101350.62;1722386;81;21785;-78
2022/01/24 03:18:15;;;;;;;8.07;5.83;;;;;;;-6.81;93.08;101348.34;1622600;86;21636;-76
2022/01/24 03:20:42;;;;;;;11.20;6.90;;;;;;;-6.76;93.10;101351.50;1650577;85;21086;-77
2022/01/24 03:23:11;;;;;;;21.73;19.63;;;;;;;-6.75;92.94;101353.66;1678241;83;21406;-77
2022/01/24 03:25:38;;;;;;;19.10;17.20;;;;;;;-6.74;92.83;101348.33;1694740;84;21262;-75
2022/01/24 03:28:04;;;;;;;11.00;7.50;;;;;;;-6.76;92.56;101346.27;1676627;85;21508;-77
2022/01/24 03:30:32;;;;;;;9.23;7.37;;;;;;;-6.81;92.49;101347.03;1670192;84;21095;-78
2022/01/24 03:32:59;;;;;;;8.57;6.63;;;;;;;-6.75;92.69;101346.65;1685651;84;21496;-75
2022/01/24 03:35:25;;;;;;;7.40;6.63;;;;;;;-6.74;92.55;101367.95;1664699;85;21573;-73
2022/01/24 03:37:52;;;;;;;9.87;7.33;;;;;;;-6.70;92.46;101341.13;1685715;85;21794;-74
2022/01/24 03:40:18;;;;;;;10.43;7.70;;;;;;;-6.71;92.48;101346.81;1714424;83;21003;-73
2022/01/24 03:42:45;;;;;;;9.60;8.13;;;;;;;-6.69;92.46;101347.57;1694836;83;20963;-73
2022/01/24 03:45:12;;;;;;;6.87;5.63;;;;;;;-6.65;92.41;101344.28;1669858;85;21047;-73
2022/01/24 03:48:02;;;;;;;10.67;6.73;;;;;;;-6.62;92.24;101344.91;1643444;86;21076;-73
2022/01/24 03:50:17;;;;;;;11.97;7.93;;;;;;;-6.63;91.94;101347.19;1661913;86;21151;-73
2022/01/24 03:52:44;;;;;;;12.33;6.50;;;;;;;-6.64;91.91;101361.20;1687206;83;21038;-73
2022/01/24 03:55:10;;;;;;;8.40;6.60;;;;;;;-6.59;91.79;101365.29;1672139;84;20957;-73
2022/01/24 03:57:37;;;;;;;11.23;8.30;;;;;;;-6.64;91.33;101347.27;1691399;84;20941;-76
2022/01/24 04:00:08;;;;;;;6.60;5.90;;;;;;;-6.64;91.19;101361.66;1691359;84;21526;-76
2022/01/24 04:02:36;;;;;;;7.80;5.80;;;;;;;-6.68;90.96;101349.25;1707263;83;20942;-77
2022/01/24 04:05:03;;;;;;;9.83;7.20;;;;;;;-6.68;90.83;101345.80;1684840;83;21557;-75
2022/01/24 04:07:29;;;;;;;9.63;7.10;;;;;;;-6.71;90.51;101355.13;1721499;83;20977;-75
2022/01/24 04:10:02;;;;;;;10.00;6.80;;;;;;;-6.73;90.49;101348.71;1708438;83;21063;-76
2022/01/24 04:12:26;;;;;;;12.23;5.47;;;;;;;-6.77;90.45;101345.08;1679220;84;21600;-73
2022/01/24 04:15:07;;;;;;;8.67;6.53;;;;;;;-6.80;90.49;101331.72;1682629;84;21152;-73
2022/01/24 04:17:35;;;;;;;9.63;8.30;;;;;;;-6.79;90.54;101337.33;1680315;85;21017;-74
2022/01/24 04:22:31;;;;;;;8.63;6.93;;;;;;;-6.75;90.64;101332.73;1687792;83;20986;-77
2022/01/24 04:24:59;;;;;;;8.47;5.90;;;;;;;-6.73;90.63;101338.25;1712989;83;21610;-78
2022/01/24 04:27:22;;;;;;;10.67;6.47;;;;;;;-6.71;90.44;101336.82;1683799;84;21125;-75
2022/01/24 04:29:48;;;;;;;9.83;5.73;;;;;;;-6.67;90.29;101354.02;1751669;81;20916;-74
2022/01/24 04:32:16;;;;;;;11.70;6.27;;;;;;;-6.69;89.86;101363.27;1726923;82;21089;-73
2022/01/24 04:34:43;;;;;;;9.30;7.23;;;;;;;-6.70;89.62;101362.05;1729202;83;21028;-75
2022/01/24 04:37:09;;;;;;;11.43;7.80;;;;;;;-6.72;89.46;101367.41;1729388;82;21114;-74
2022/01/24 04:39:36;;;;;;;9.83;5.83;;;;;;;-6.72;89.43;101366.09;1710080;82;21107;-76
2022/01/24 04:42:11;;;;;;;12.63;7.20;;;;;;;-6.80;89.33;101376.65;1684709;84;21032;-75
2022/01/24 04:47:18;;;;;;;20.30;8.10;;;;;;;-6.78;89.34;101373.48;1684819;84;21089;-77
2022/01/24 04:52:28;;;;;;;9.47;5.63;;;;;;;-6.73;89.18;101380.56;1761717;81;21741;-77
2022/01/24 04:54:47;;;;;;;10.83;7.10;;;;;;;-6.72;89.00;101387.48;1682502;83;21504;-74
2022/01/24 04:57:23;;;;;;;6.97;5.07;;;;;;;-6.73;88.88;101377.95;1701735;84;21455;-75
2022/01/24 04:59:51;;;;;;;8.30;6.40;;;;;;;-6.74;88.83;101386.27;1700046;82;20983;-76
2022/01/24 05:02:19;;;;;;;15.30;8.27;;;;;;;-6.88;88.67;101388.08;1684459;84;21050;-74
2022/01/24 05:04:45;;;;;;;11.70;7.23;;;;;;;-6.91;88.97;101402.20;1706744;84;21158;-75
2022/01/24 05:07:12;;;;;;;12.20;7.00;;;;;;;-6.89;89.16;101398.16;1706787;84;21029;-76
2022/01/24 05:09:47;;;;;;;6.93;3.87;;;;;;;-6.93;89.16;101390.98;1708978;82;21026;-75
2022/01/24 05:25:55;;;;;;;8.50;7.33;;;;;;;-7.09;90.18;101396.31;1704893;84;21077;-76
2022/01/24 05:28:22;;;;;;;7.63;6.03;;;;;;;-7.00;90.32;101395.39;1706161;83;21367;-75
2022/01/24 05:30:49;;;;;;;11.40;6.37;;;;;;;-7.01;90.48;101396.32;1660285;84;21056;-75
2022/01/24 05:33:15;;;;;;;11.77;7.43;;;;;;;-7.04;90.54;101396.03;1708653;83;21050;-75
2022/01/24 05:35:42;;;;;;;10.10;6.47;;;;;;;-7.03;90.66;101395.10;1712885;83;21733;-75
2022/01/24 05:38:10;;;;;;;11.70;6.73;;;;;;;-7.01;90.96;101391.09;1689955;83;21583;-75
2022/01/24 05:40:38;;;;;;;8.50;6.60;;;;;;;-6.99;90.96;101395.74;1736671;82;21045;-75
2022/01/24 05:43:06;;;;;;;11.00;6.63;;;;;;;-6.95;91.14;101389.41;1742934;82;21511;-76
2022/01/24 05:45:33;;;;;;;9.30;5.07;;;;;;;-6.90;91.13;101386.85;1721456;82;20959;-79
2022/01/24 05:48:00;;;;;;;6.30;4.93;;;;;;;-6.91;91.11;101385.66;1742482;82;21476;-75
2022/01/24 05:50:27;;;;;;;9.37;6.73;;;;;;;-6.95;91.15;101372.41;1733263;82;20991;-76
2022/01/24 05:52:54;;;;;;;9.17;6.83;;;;;;;-6.97;91.05;101385.58;1713970;82;21125;-76
2022/01/24 05:55:20;;;;;;;13.53;8.07;;;;;;;-6.93;91.09;101377.06;1690987;83;21833;-78
2022/01/24 05:57:47;;;;;;;16.43;6.97;;;;;;;-6.89;91.15;101378.08;1686108;83;21507;-76
2022/01/24 06:00:15;;;;;;;12.57;8.63;;;;;;;-6.87;91.02;101384.06;1714319;82;21631;-77
2022/01/24 06:02:41;;;;;;;16.73;8.90;;;;;;;-6.89;90.81;101383.31;1691737;83;21076;-74
2022/01/24 06:05:08;;;;;;;19.03;9.63;;;;;;;-6.88;90.60;101385.45;1690992;83;21019;-71
2022/01/24 06:07:34;;;;;;;17.90;9.37;;;;;;;-6.84;90.58;101391.70;1702758;83;22190;-77
2022/01/24 06:10:01;;;;;;;25.60;12.30;;;;;;;-6.76;90.59;101395.16;1727665;82;21476;-76
2022/01/24 06:12:27;;;;;;;12.53;8.57;;;;;;;-6.74;90.32;101394.11;1732975;82;21520;-75
2022/01/24 06:14:54;;;;;;;19.17;9.57;;;;;;;-6.69;90.31;101399.05;1712910;83;21066;-72
2022/01/24 06:17:21;;;;;;;15.87;9.07;;;;;;;-6.62;90.27;101403.78;1712905;83;21606;-74
2022/01/24 06:19:47;;;;;;;20.57;12.63;;;;;;;-6.54;90.06;101402.00;1688420;83;21047;-81
2022/01/24 06:22:13;;;;;;;12.17;7.50;;;;;;;-6.65;89.41;101409.69;1722387;82;21029;-76
2022/01/24 06:24:39;;;;;;;16.30;9.43;;;;;;;-6.73;89.45;101404.11;1690793;84;20977;-80
2022/01/24 06:27:06;;;;;;;17.93;10.73;;;;;;;-6.74;89.58;101410.27;1690524;84;21642;-76
2022/01/24 06:29:34;;;;;;;16.50;8.80;;;;;;;-6.73;89.54;101401.03;1699544;82;21494;-76
2022/01/24 06:32:01;;;;;;;14.50;8.40;;;;;;;-6.69;89.68;101409.05;1677241;83;21085;-76
2022/01/24 06:34:28;;;;;;;10.70;7.33;;;;;;;-6.63;89.63;101402.59;1706281;84;21039;-75
2022/01/24 06:36:55;;;;;;;17.80;9.80;;;;;;;-6.57;89.62;101394.83;1685024;83;21145;-75
2022/01/24 06:39:22;;;;;;;11.40;7.90;;;;;;;-6.52;89.55;101399.30;1701740;83;21120;-74
2022/01/24 06:42:08;;;;;;;15.20;9.47;;;;;;;-6.53;89.26;101398.92;1717869;81;21069;-74
2022/01/24 06:44:19;;;;;;;11.73;7.90;;;;;;;-6.51;89.24;101395.72;1713540;82;21268;-74
2022/01/24 06:46:45;;;;;;;11.23;7.40;;;;;;;-6.48;89.18;101399.00;1740313;81;21022;-75
2022/01/24 06:49:11;;;;;;;13.23;8.40;;;;;;;-6.46;89.11;101394.95;1712217;82;20984;-75
2022/01/24 06:51:38;;;;;;;18.57;8.33;;;;;;;-6.44;89.07;101402.25;1705827;82;21078;-75
2022/01/24 06:54:04;;;;;;;15.20;8.80;;;;;;;-6.39;89.13;101402.33;1705181;83;21011;-77
2022/01/24 06:56:30;;;;;;;14.47;9.00;;;;;;;-6.36;88.99;101399.96;1700341;84;21113;-76
2022/01/24 06:58:57;;;;;;;12.80;8.43;;;;;;;-6.37;88.89;101394.35;1751048;81;20964;-75
2022/01/24 07:01:23;;;;;;;17.47;9.07;;;;;;;-6.32;88.91;101398.81;1744355;81;21596;-75
2022/01/24 07:03:49;;;;;;;11.83;8.23;;;;;;;-6.29;88.78;101397.33;1725174;83;21507;-77
2022/01/24 07:06:16;;;;;;;12.33;9.30;;;;;;;-6.24;88.76;101401.33;1716726;82;21037;-75
2022/01/24 07:08:43;;;;;;;14.43;8.00;;;;;;;-6.24;88.55;101399.18;1749237;81;21145;-75
2022/01/24 07:11:09;;;;;;;15.03;9.73;;;;;;;-6.25;88.48;101394.88;1704202;83;21034;-73
2022/01/24 07:13:36;;;;;;;21.00;10.60;;;;;;;-6.19;88.58;101397.10;1705831;82;21016;-76
2022/01/24 07:16:05;;;;;;;18.57;9.23;;;;;;;-6.13;88.51;101395.83;1705708;82;21048;-75
2022/01/24 07:21:04;;;;;;;13.10;7.80;;;;;;;-6.05;88.41;101393.57;1728540;82;21433;-74
2022/01/24 07:23:30;;;;;;;14.43;7.87;;;;;;;-6.00;88.32;101399.34;1731380;81;21526;-76
2022/01/24 07:25:56;;;;;;;12.60;7.90;;;;;;;-5.93;88.31;101400.13;1700260;84;21505;-76
2022/01/24 07:28:24;;;;;;;12.53;8.20;;;;;;;-5.86;88.24;101396.61;1739203;82;21687;-76
2022/01/24 07:30:51;;;;;;;13.77;9.13;;;;;;;-5.78;88.13;101399.07;1740012;81;21045;-76
2022/01/24 07:33:19;;;;;;;13.50;8.33;;;;;;;-5.69;88.13;101399.38;1729450;83;21198;-76
2022/01/24 07:35:45;;;;;;;14.10;8.53;;;;;;;-5.59;88.06;101394.73;1750640;81;21672;-77
2022/01/24 07:38:11;;;;;;;8.37;6.37;;;;;;;-5.48;87.80;101402.70;1699957;84;21560;-79
2022/01/24 07:40:41;;;;;;;8.67;5.57;;;;;;;-5.46;87.27;101396.03;1739807;81;21059;-79
2022/01/24 07:43:15;;;;;;;14.17;8.97;;;;;;;-5.52;86.82;101390.77;1729082;83;21023;-81
2022/01/24 07:45:45;;;;;;;12.80;8.03;;;;;;;-5.53;86.92;101386.92;1761243;80;21668;-77
2022/01/24 07:48:13;;;;;;;11.27;9.13;;;;;;;-5.54;86.88;101387.39;1742329;81;21345;-82
2022/01/24 07:50:42;;;;;;;10.27;8.10;;;;;;;-5.50;86.94;101389.33;1715928;83;21505;-81
2022/01/24 07:53:09;;;;;;;13.77;9.53;;;;;;;-5.50;86.83;101398.50;1735666;81;20999;-80
2022/01/24 07:55:36;;;;;;;12.30;8.00;;;;;;;-5.49;86.82;101393.16;1714766;83;21062;-80
2022/01/24 07:58:03;;;;;;;12.53;9.17;;;;;;;-5.50;86.77;101394.57;1758355;80;21346;-79
2022/01/24 08:00:29;;;;;;;14.27;10.13;;;;;;;-5.49;86.74;101394.47;1723260;82;21532;-81
2022/01/24 08:02:57;;;;;;;16.77;10.13;;;;;;;-5.51;86.85;101383.24;1748676;82;21511;-78
2022/01/24 08:05:24;;;;;;;12.40;9.50;;;;;;;-5.46;86.97;101387.70;1682894;83;20955;-79
2022/01/24 08:07:51;;;;;;;14.80;8.57;;;;;;;-5.36;87.10;101383.50;1674759;84;21516;-78
2022/01/24 08:10:17;;;;;;;14.87;9.63;;;;;;;-5.36;86.71;101382.66;1730803;82;22094;-75
2022/01/24 08:12:44;;;;;;;13.13;9.03;;;;;;;-5.32;86.80;101368.38;1702059;83;20969;-77
2022/01/24 08:15:14;;;;;;;13.50;10.07;;;;;;;-5.25;86.75;101369.64;1728555;81;20908;-74
2022/01/24 08:17:42;;;;;;;9.77;6.97;;;;;;;-5.20;86.66;101376.72;1691427;84;21607;-80
2022/01/24 08:20:12;;;;;;;10.43;8.43;;;;;;;-5.13;86.61;101375.83;1733250;81;20982;-79
2022/01/24 08:22:39;;;;;;;12.07;8.47;;;;;;;-5.11;86.40;101381.31;1704237;82;21541;-75
2022/01/24 08:25:06;;;;;;;12.23;8.30;;;;;;;-5.10;86.19;101376.91;1718888;83;21003;-76
2022/01/24 08:27:34;;;;;;;15.10;10.27;;;;;;;-5.07;86.19;101369.66;1696686;83;21043;-78
2022/01/24 08:30:04;;;;;;;18.23;10.47;;;;;;;-5.00;86.05;101384.50;1719966;82;21064;-80
2022/01/24 08:32:30;;;;;;;16.07;10.93;;;;;;;-4.96;85.88;101364.50;1746537;81;21084;-76
2022/01/24 08:34:58;;;;;;;19.57;12.67;;;;;;;-4.90;85.75;101381.59;1720424;83;21121;-76
2022/01/24 08:37:25;;;;;;;24.10;11.97;;;;;;;-4.87;85.71;101376.96;1719480;83;21524;-74
2022/01/24 08:39:51;;;;;;;19.67;11.63;;;;;;;-4.93;85.02;101372.61;1718827;83;21572;-73
2022/01/24 08:42:26;;;;;;;21.27;12.30;;;;;;;-5.02;85.03;101375.42;1695202;83;20966;-73
2022/01/24 08:47:29;;;;;;;16.93;11.73;;;;;;;-4.99;85.64;101379.63;1734477;82;21051;-75
2022/01/24 08:49:56;;;;;;;15.67;11.07;;;;;;;-4.96;85.65;101373.69;1713892;83;20945;-75
2022/01/24 08:52:23;;;;;;;24.90;14.53;;;;;;;-4.95;85.54;101366.18;1724226;82;21063;-74
2022/01/24 08:54:49;;;;;;;18.73;11.70;;;;;;;-4.96;85.54;101371.06;1707565;83;20967;-73
2022/01/24 08:57:15;;;;;;;20.73;13.70;;;;;;;-4.89;85.57;101372.75;1706165;82;21599;-76
2022/01/24 08:59:42;;;;;;;20.93;11.87;;;;;;;-4.87;85.53;101375.64;1714175;82;21939;-73
2022/01/24 09:02:08;;;;;;;17.73;10.93;;;;;;;-4.86;85.35;101376.48;1698520;83;21034;-73
2022/01/24 09:04:34;;;;;;;19.50;11.63;;;;;;;-4.84;85.40;101361.45;1718678;83;22210;-75
2022/01/24 09:07:04;;;;;;;25.10;12.57;;;;;;;-4.80;85.19;101367.34;1719280;83;21528;-73
2022/01/24 09:09:34;;;;;;;21.67;11.20;;;;;;;-4.82;85.26;101362.66;1697824;83;21620;-72
2022/01/24 09:12:03;;;;;;;15.30;10.17;;;;;;;-4.80;85.27;101357.69;1698359;83;21050;-74
2022/01/24 09:14:31;;;;;;;37.33;19.53;;;;;;;-4.80;85.25;101360.78;1718363;83;21022;-74
2022/01/24 09:16:57;;;;;;;63.27;29.57;;;;;;;-4.85;84.98;101361.95;1717282;83;20963;-72
2022/01/24 09:19:23;;;;;;;70.37;31.73;;;;;;;-4.84;85.28;101357.52;1696429;83;21520;-74
2022/01/24 09:21:50;;;;;;;115.80;47.20;;;;;;;-4.83;85.41;101346.08;1720967;83;21027;-74
2022/01/24 09:24:16;;;;;;;57.23;26.50;;;;;;;-4.75;85.43;101358.66;1694583;84;21831;-74
2022/01/24 09:26:43;;;;;;;19.40;11.73;;;;;;;-4.71;85.32;101358.34;1730211;82;21095;-72
2022/01/24 09:29:09;;;;;;;19.00;11.37;;;;;;;-4.64;85.12;101354.77;1704444;83;21476;-77
2022/01/24 09:31:35;;;;;;;29.77;13.27;;;;;;;-4.60;85.20;101349.66;1729403;83;20999;-77
2022/01/24 09:34:02;;;;;;;17.70;13.20;;;;;;;-4.50;85.28;101341.00;1729584;83;21602;-78
2022/01/24 09:36:29;;;;;;;18.00;10.77;;;;;;;-4.50;84.01;101338.84;1718981;82;21676;-81
2022/01/24 09:38:56;;;;;;;21.90;10.37;;;;;;;-4.48;83.31;101336.48;1745450;82;21509;-79
2022/01/24 09:41:22;;;;;;;17.67;12.97;;;;;;;-4.45;83.04;101331.47;1715647;83;21047;-74
2022/01/24 09:43:49;;;;;;;16.50;11.67;;;;;;;-4.41;83.02;101335.06;1709412;83;21022;-74
2022/01/24 09:46:15;;;;;;;16.60;11.57;;;;;;;-4.34;82.69;101323.64;1700718;83;21011;-76
2022/01/24 09:48:41;;;;;;;19.17;11.87;;;;;;;-4.28;82.15;101324.98;1740652;81;21018;-75
2022/01/24 09:51:08;;;;;;;20.53;12.80;;;;;;;-4.27;81.47;101327.50;1691414;81;21083;-79
2022/01/24 09:53:35;;;;;;;17.10;10.70;;;;;;;-4.22;81.21;101333.22;1761225;81;21611;-78
2022/01/24 09:56:04;;;;;;;21.23;11.20;;;;;;;-4.24;79.93;101314.60;1756799;81;21038;-78
2022/01/24 09:58:35;;;;;;;18.77;10.90;;;;;;;-4.27;79.53;101322.25;1749162;82;20994;-78
2022/01/24 10:01:07;;;;;;;14.23;10.40;;;;;;;-4.23;79.62;101327.63;1733030;81;22186;-83
2022/01/24 10:03:33;;;;;;;22.37;10.70;;;;;;;-4.18;79.39;101322.88;1701406;83;21057;-78
2022/01/24 10:06:01;;;;;;;15.57;10.87;;;;;;;-4.15;78.68;101320.00;1696447;82;21075;-71
2022/01/24 10:08:30;;;;;;;16.73;11.40;;;;;;;-4.13;78.32;101332.56;1691233;83;21545;-76
2022/01/24 10:11:00;;;;;;;16.50;11.13;;;;;;;-4.12;77.14;101314.50;1712122;83;21077;-74
2022/01/24 10:16:35;;;;;;;20.33;12.53;;;;;;;-4.05;76.89;101300.44;1696721;83;21044;-75
2022/01/24 10:19:11;;;;;;;18.33;11.73;;;;;;;-4.02;76.16;101319.90;1698088;83;21585;-80
2022/01/24 10:21:47;;;;;;;17.67;12.40;;;;;;;-3.95;76.04;101296.16;1744084;81;21476;-77
2022/01/24 10:24:41;;;;;;;20.40;11.47;;;;;;;-3.99;75.77;101292.94;1711381;81;21014;-77
2022/01/24 10:27:27;;;;;;;15.93;10.87;;;;;;;-3.92;75.48;101289.81;1736238;81;21552;-74
2022/01/24 10:30:10;;;;;;;17.70;11.87;;;;;;;-3.84;75.32;101280.89;1712531;82;25001;-76
2022/01/24 10:32:47;;;;;;;20.40;13.58;;;;;;;-3.78;75.26;101273.34;1709260;82;21030;-76
2022/01/24 10:35:38;;;;;;;24.47;12.27;;;;;;;-3.68;74.91;101263.79;1705573;84;21000;-76
2022/01/24 10:38:42;;;;;;;15.63;12.00;;;;;;;-3.62;74.22;101271.20;1680148;84;21081;-79
2022/01/24 10:41:24;;;;;;;19.70;11.77;;;;;;;-3.55;73.86;101266.31;1685176;84;21210;-79
2022/01/24 10:43:47;;;;;;;12.87;9.87;;;;;;;-3.51;73.70;101284.84;1724637;83;20990;-81
2022/01/24 10:46:14;;;;;;;20.33;12.50;;;;;;;-3.47;73.23;101279.69;1698222;84;21090;-82
2022/01/24 10:48:43;;;;;;;19.53;12.60;;;;;;;-3.45;73.30;101269.06;1707440;83;21043;-73
2022/01/24 10:51:19;;;;;;;17.27;11.43;;;;;;;-3.40;73.27;101256.34;1680329;84;21061;-75
2022/01/24 10:53:55;;;;;;;19.60;11.53;;;;;;;-3.37;73.00;101262.23;1706066;82;21166;-72
2022/01/24 10:56:37;;;;;;;23.00;12.03;;;;;;;-3.31;72.45;101264.34;1706749;84;21046;-75
2022/01/24 10:59:15;;;;;;;18.65;9.43;;;;;;;-3.32;72.45;101262.70;1705067;82;21537;-76
2022/01/24 11:01:45;;;;;;;21.20;13.40;;;;;;;-3.23;72.65;101271.17;1694656;84;20972;-75
2022/01/24 11:04:14;;;;;;;25.13;16.17;;;;;;;-3.09;72.99;101264.32;1689577;82;21039;-75
2022/01/24 11:06:51;;;;;;;22.93;12.77;;;;;;;-2.95;72.42;101275.52;1701886;82;21088;-75
2022/01/24 11:09:31;;;;;;;17.33;12.67;;;;;;;-2.91;71.88;101261.98;1709888;83;21567;-79
2022/01/24 11:12:10;;;;;;;20.40;12.73;;;;;;;-2.90;70.84;101257.09;1666338;82;22108;-77
2022/01/24 11:14:40;;;;;;;18.73;12.03;;;;;;;-2.88;70.49;101261.76;1690315;84;21035;-86
2022/01/24 11:17:10;;;;;;;15.73;11.03;;;;;;;-2.87;70.69;101256.83;1675913;84;21101;-76
2022/01/24 11:22:06;;;;;;;19.63;12.10;;;;;;;-2.84;70.21;101250.02;1680578;84;21015;-77
2022/01/24 11:24:41;;;;;;;21.57;11.37;;;;;;;-2.81;70.15;101250.22;1674106;84;21030;-87
2022/01/24 11:27:07;;;;;;;13.57;8.90;;;;;;;-2.77;69.85;101250.33;1674346;84;21144;-82
2022/01/24 11:29:33;;;;;;;21.17;12.40;;;;;;;-2.79;69.08;101236.47;1690654;84;21042;-77
2022/01/24 11:32:27;;;;;;;16.17;12.10;;;;;;;-2.91;69.31;101230.40;1668618;84;21113;-75
2022/01/24 11:34:55;;;;;;;18.07;11.13;;;;;;;-2.86;69.31;101236.13;1692723;84;21652;-82
2022/01/24 11:37:44;;;;;;;20.47;10.60;;;;;;;-2.84;68.47;101242.11;1684032;84;22226;-74
2022/01/24 11:40:17;;;;;;;12.67;8.80;;;;;;;-2.81;68.82;101252.86;1665519;86;21081;-73
2022/01/24 11:42:47;;;;;;;16.70;11.70;;;;;;;-2.78;68.86;101242.91;1671425;85;21058;-76
2022/01/24 11:45:18;;;;;;;18.17;12.47;;;;;;;-2.79;68.43;101237.31;1683035;84;21157;-81
2022/01/24 11:47:46;;;;;;;13.17;9.50;;;;;;;-2.82;68.41;101240.65;1666205;85;21003;-76
2022/01/24 11:50:36;;;;;;;13.13;8.10;;;;;;;-2.87;68.44;101238.88;1673630;84;21037;-70
2022/01/24 11:53:00;;;;;;;14.40;9.17;;;;;;;-2.86;68.64;101245.81;1688367;84;21523;-78
2022/01/24 11:55:34;;;;;;;13.73;9.27;;;;;;;-2.93;68.63;101232.34;1660317;85;21152;-81
2022/01/24 11:58:04;;;;;;;19.90;10.70;;;;;;;-2.91;68.66;101245.36;1689320;85;21140;-82
2022/01/24 12:00:44;;;;;;;12.90;8.73;;;;;;;-2.92;68.53;101248.94;1689691;84;21537;-81
2022/01/24 12:03:26;;;;;;;12.35;9.05;;;;;;;-2.86;68.56;101231.34;1689373;84;20982;-79
2022/01/24 12:05:53;;;;;;;13.33;9.80;;;;;;;-2.73;68.37;101232.83;1668265;84;21584;-77
2022/01/24 12:08:44;;;;;;;13.40;9.30;;;;;;;-2.58;68.04;101237.80;1691921;84;21066;-81
2022/01/24 12:11:19;;;;;;;16.48;9.08;;;;;;;-2.48;67.58;101240.86;1677392;85;21139;-77
2022/01/24 12:13:55;;;;;;;12.10;8.70;;;;;;;-2.50;66.71;101234.90;1685283;84;20967;-78
2022/01/24 12:16:38;;;;;;;12.27;8.57;;;;;;;-2.46;66.94;101248.64;1671963;85;21021;-83
2022/01/24 12:19:05;;;;;;;11.90;8.63;;;;;;;-2.36;66.28;101251.70;1705372;83;20999;-80
2022/01/24 12:21:38;;;;;;;12.70;8.93;;;;;;;-2.25;65.97;101244.19;1691638;84;21581;-82
2022/01/24 12:24:12;;;;;;;16.60;9.28;;;;;;;-2.24;65.81;101245.39;1705184;83;21906;-78
2022/01/24 12:26:47;;;;;;;13.37;8.93;;;;;;;-2.21;65.27;101241.67;1670527;84;21020;-78
2022/01/24 12:29:25;;;;;;;13.10;6.77;;;;;;;-2.17;65.46;101242.24;1674590;84;21043;-73
2022/01/24 12:31:55;;;;;;;12.97;9.20;;;;;;;-2.33;65.18;101229.52;1695172;84;21096;-74
2022/01/24 12:34:28;;;;;;;10.37;8.67;;;;;;;-2.28;65.92;101226.02;1696919;83;21772;-77
2022/01/24 12:37:01;;;;;;;12.53;9.10;;;;;;;-2.22;65.42;101230.30;1679936;84;21736;-77
2022/01/24 12:39:45;;;;;;;17.13;10.50;;;;;;;-2.12;65.44;101235.62;1670640;84;21155;-78
2022/01/24 12:42:15;;;;;;;17.70;9.20;;;;;;;-2.05;64.96;101247.30;1651577;84;21341;-75
2022/01/24 12:47:24;;;;;;;9.00;6.03;;;;;;;-1.90;64.93;101247.80;1684057;84;21054;-79
2022/01/24 12:49:51;;;;;;;13.08;8.60;;;;;;;-1.95;63.68;101242.91;1659335;85;22234;-75
2022/01/24 12:52:21;;;;;;;11.87;7.93;;;;;;;-2.00;63.73;101237.20;1699062;83;21596;-78
2022/01/24 12:54:52;;;;;;;13.80;9.00;;;;;;;-2.12;63.60;101248.80;1668981;83;21181;-77
2022/01/24 12:57:21;;;;;;;15.20;9.87;;;;;;;-2.12;64.03;101258.50;1720320;82;20956;-74
2022/01/24 13:00:03;;;;;;;13.50;9.03;;;;;;;-2.17;64.18;101248.83;1691124;83;21051;-73
2022/01/24 13:02:32;;;;;;;16.55;9.60;;;;;;;-2.29;64.56;101243.63;1672713;83;21613;-78